sensor_id;sensor_type;location;lat;lon;timestamp;temperature;humidity
40177;DHT22;31511;46.176;9.874;2023-03-01T00:01:58;3.70;99.90
40177;DHT22;31511;46.176;9.874;2023-03-01T00:04:43;3.70;99.90
40177;DHT22;31511;46.176;9.874;2023-03-01T00:07:28;3.70;99.90
40177;DHT22;31511;46.176;9.874;2023-03-01T00:10:14;3.60;99.90
40177;DHT22;31511;46.176;9.874;2023-03-01T00:12:59;3.80;99.90
40177;DHT22;31511;46.176;9.874;2023-03-01T00:15:43;3.60;99.90
40177;DHT22;31511;46.176;9.874;2023-03-01T00:18:29;3.50;99.90
40177;DHT22;31511;46.176;9.874;2023-03-01T00:21:15;3.50;99.90
40177;DHT22;31511;46.176;9.874;2023-03-01T00:23:59;3.40;99.90
40177;DHT22;31511;46.176;9.874;2023-03-01T00:26:45;3.50;99.90
40177;DHT22;31511;46.176;9.874;2023-03-01T00:29:30;3.40;99.90
40177;DHT22;31511;46.176;9.874;2023-03-01T00:32:15;3.50;99.90
40177;DHT22;31511;46.176;9.874;2023-03-01T00:35:03;3.70;99.90
40177;DHT22;31511;46.176;9.874;2023-03-01T00:37:47;3.50;99.90
40177;DHT22;31511;46.176;9.874;2023-03-01T00:40:33;3.60;99.90
40177;DHT22;31511;46.176;9.874;2023-03-01T00:43:18;3.50;99.90
40177;DHT22;31511;46.176;9.874;2023-03-01T00:46:06;3.50;99.90
40177;DHT22;31511;46.176;9.874;2023-03-01T00:48:52;3.30;99.90
40177;DHT22;31511;46.176;9.874;2023-03-01T00:51:36;3.20;99.90
40177;DHT22;31511;46.176;9.874;2023-03-01T00:54:21;3.20;99.90
40177;DHT22;31511;46.176;9.874;2023-03-01T00:57:06;3.20;99.90
40177;DHT22;31511;46.176;9.874;2023-03-01T00:59:51;3.30;99.90
40177;DHT22;31511;46.176;9.874;2023-03-01T01:02:36;3.30;99.90
40177;DHT22;31511;46.176;9.874;2023-03-01T01:05:21;3.30;99.90
40177;DHT22;31511;46.176;9.874;2023-03-01T01:08:06;3.20;99.90
40177;DHT22;31511;46.176;9.874;2023-03-01T01:10:50;3.20;99.90
40177;DHT22;31511;46.176;9.874;2023-03-01T01:13:34;3.20;99.90
40177;DHT22;31511;46.176;9.874;2023-03-01T01:16:20;3.30;99.90
40177;DHT22;31511;46.176;9.874;2023-03-01T01:19:06;3.20;99.90
40177;DHT22;31511;46.176;9.874;2023-03-01T01:21:50;3.20;99.90
40177;DHT22;31511;46.176;9.874;2023-03-01T01:24:34;3.20;99.90
40177;DHT22;31511;46.176;9.874;2023-03-01T01:27:19;3.20;99.90
40177;DHT22;31511;46.176;9.874;2023-03-01T01:30:05;3.00;99.90
40177;DHT22;31511;46.176;9.874;2023-03-01T01:32:49;3.10;99.90
40177;DHT22;31511;46.176;9.874;2023-03-01T01:35:33;3.20;99.90
40177;DHT22;31511;46.176;9.874;2023-03-01T01:38:18;3.30;99.90
40177;DHT22;31511;46.176;9.874;2023-03-01T01:41:02;3.50;99.90
40177;DHT22;31511;46.176;9.874;2023-03-01T01:44:33;3.40;99.90
40177;DHT22;31511;46.176;9.874;2023-03-01T01:46:59;3.30;99.90
40177;DHT22;31511;46.176;9.874;2023-03-01T01:49:49;3.30;99.90
40177;DHT22;31511;46.176;9.874;2023-03-01T01:52:35;3.40;99.90
40177;DHT22;31511;46.176;9.874;2023-03-01T01:55:22;3.20;99.90
40177;DHT22;31511;46.176;9.874;2023-03-01T01:58:09;3.30;99.90
40177;DHT22;31511;46.176;9.874;2023-03-01T02:00:54;3.30;99.90
40177;DHT22;31511;46.176;9.874;2023-03-01T02:03:39;3.20;99.90
40177;DHT22;31511;46.176;9.874;2023-03-01T02:06:31;3.10;99.90
40177;DHT22;31511;46.176;9.874;2023-03-01T02:09:16;3.00;99.90
40177;DHT22;31511;46.176;9.874;2023-03-01T02:12:03;3.10;99.90
40177;DHT22;31511;46.176;9.874;2023-03-01T02:14:48;3.10;99.90
40177;DHT22;31511;46.176;9.874;2023-03-01T02:17:32;3.30;99.90
40177;DHT22;31511;46.176;9.874;2023-03-01T02:20:26;3.20;99.90
40177;DHT22;31511;46.176;9.874;2023-03-01T02:23:12;3.10;99.90
40177;DHT22;31511;46.176;9.874;2023-03-01T02:28:42;3.10;99.90
40177;DHT22;31511;46.176;9.874;2023-03-01T02:31:28;3.10;99.90
40177;DHT22;31511;46.176;9.874;2023-03-01T02:34:28;3.10;99.90
40177;DHT22;31511;46.176;9.874;2023-03-01T02:37:14;3.10;99.90
40177;DHT22;31511;46.176;9.874;2023-03-01T02:40:06;2.90;99.90
40177;DHT22;31511;46.176;9.874;2023-03-01T02:42:56;2.90;99.90
40177;DHT22;31511;46.176;9.874;2023-03-01T02:45:48;2.90;99.90
40177;DHT22;31511;46.176;9.874;2023-03-01T02:48:39;2.90;99.90
40177;DHT22;31511;46.176;9.874;2023-03-01T02:51:27;2.80;99.90
40177;DHT22;31511;46.176;9.874;2023-03-01T02:54:34;2.70;99.90
40177;DHT22;31511;46.176;9.874;2023-03-01T02:57:21;2.90;99.90
40177;DHT22;31511;46.176;9.874;2023-03-01T03:00:09;2.90;99.90
40177;DHT22;31511;46.176;9.874;2023-03-01T03:02:53;2.90;99.90
40177;DHT22;31511;46.176;9.874;2023-03-01T03:05:38;3.00;99.90
40177;DHT22;31511;46.176;9.874;2023-03-01T03:08:23;2.80;99.90
40177;DHT22;31511;46.176;9.874;2023-03-01T03:11:08;2.90;99.90
40177;DHT22;31511;46.176;9.874;2023-03-01T03:13:53;2.80;99.90
40177;DHT22;31511;46.176;9.874;2023-03-01T03:16:38;2.60;99.90
40177;DHT22;31511;46.176;9.874;2023-03-01T03:19:23;2.80;99.90
40177;DHT22;31511;46.176;9.874;2023-03-01T03:22:08;2.80;99.90
40177;DHT22;31511;46.176;9.874;2023-03-01T03:24:53;2.70;99.90
40177;DHT22;31511;46.176;9.874;2023-03-01T03:27:39;2.70;99.90
40177;DHT22;31511;46.176;9.874;2023-03-01T03:30:25;2.60;99.90
40177;DHT22;31511;46.176;9.874;2023-03-01T03:33:10;2.60;99.90
40177;DHT22;31511;46.176;9.874;2023-03-01T03:35:55;2.60;99.90
40177;DHT22;31511;46.176;9.874;2023-03-01T03:38:39;2.40;99.90
40177;DHT22;31511;46.176;9.874;2023-03-01T03:41:25;2.40;99.90
40177;DHT22;31511;46.176;9.874;2023-03-01T03:44:10;2.40;99.90
40177;DHT22;31511;46.176;9.874;2023-03-01T03:46:55;2.50;99.90
40177;DHT22;31511;46.176;9.874;2023-03-01T03:49:40;2.50;99.90
40177;DHT22;31511;46.176;9.874;2023-03-01T03:52:25;2.60;99.90
40177;DHT22;31511;46.176;9.874;2023-03-01T03:55:12;2.50;99.90
40177;DHT22;31511;46.176;9.874;2023-03-01T03:57:57;2.50;99.90
40177;DHT22;31511;46.176;9.874;2023-03-01T04:00:44;2.50;99.90
40177;DHT22;31511;46.176;9.874;2023-03-01T04:03:29;2.40;99.90
40177;DHT22;31511;46.176;9.874;2023-03-01T04:06:14;2.60;99.90
40177;DHT22;31511;46.176;9.874;2023-03-01T04:09:00;2.60;99.90
40177;DHT22;31511;46.176;9.874;2023-03-01T04:11:46;2.40;99.90
40177;DHT22;31511;46.176;9.874;2023-03-01T04:14:30;2.40;99.90
40177;DHT22;31511;46.176;9.874;2023-03-01T04:17:15;2.50;99.90
40177;DHT22;31511;46.176;9.874;2023-03-01T04:20:00;2.50;99.90
40177;DHT22;31511;46.176;9.874;2023-03-01T04:22:49;2.30;99.90
40177;DHT22;31511;46.176;9.874;2023-03-01T04:25:34;2.30;99.90
40177;DHT22;31511;46.176;9.874;2023-03-01T04:28:23;2.20;99.90
40177;DHT22;31511;46.176;9.874;2023-03-01T04:31:14;2.30;99.90
40177;DHT22;31511;46.176;9.874;2023-03-01T04:34:02;2.40;99.90
40177;DHT22;31511;46.176;9.874;2023-03-01T04:36:46;2.30;99.90
40177;DHT22;31511;46.176;9.874;2023-03-01T04:39:30;2.40;99.90
40177;DHT22;31511;46.176;9.874;2023-03-01T04:42:15;2.50;99.90
40177;DHT22;31511;46.176;9.874;2023-03-01T04:45:00;2.20;99.90
40177;DHT22;31511;46.176;9.874;2023-03-01T04:47:45;2.20;99.90
40177;DHT22;31511;46.176;9.874;2023-03-01T04:50:30;2.30;99.90
40177;DHT22;31511;46.176;9.874;2023-03-01T04:53:14;2.40;99.90
40177;DHT22;31511;46.176;9.874;2023-03-01T04:55:59;2.40;99.90
40177;DHT22;31511;46.176;9.874;2023-03-01T04:58:44;2.40;99.90
40177;DHT22;31511;46.176;9.874;2023-03-01T05:01:28;2.20;99.90
40177;DHT22;31511;46.176;9.874;2023-03-01T05:04:13;2.10;99.90
40177;DHT22;31511;46.176;9.874;2023-03-01T05:06:57;2.20;99.90
40177;DHT22;31511;46.176;9.874;2023-03-01T05:09:43;2.30;99.90
40177;DHT22;31511;46.176;9.874;2023-03-01T05:12:28;2.20;99.90
40177;DHT22;31511;46.176;9.874;2023-03-01T05:15:14;2.30;99.90
40177;DHT22;31511;46.176;9.874;2023-03-01T05:18:02;2.40;99.90
40177;DHT22;31511;46.176;9.874;2023-03-01T05:20:46;2.30;99.90
40177;DHT22;31511;46.176;9.874;2023-03-01T05:23:31;2.10;99.90
40177;DHT22;31511;46.176;9.874;2023-03-01T05:26:16;2.10;99.90
40177;DHT22;31511;46.176;9.874;2023-03-01T05:29:01;2.00;99.90
40177;DHT22;31511;46.176;9.874;2023-03-01T05:31:45;2.00;99.90
40177;DHT22;31511;46.176;9.874;2023-03-01T05:34:31;2.10;99.90
40177;DHT22;31511;46.176;9.874;2023-03-01T05:37:15;2.00;99.90
40177;DHT22;31511;46.176;9.874;2023-03-01T05:40:02;2.10;99.90
40177;DHT22;31511;46.176;9.874;2023-03-01T05:42:48;2.10;99.90
40177;DHT22;31511;46.176;9.874;2023-03-01T05:45:32;2.10;99.90
40177;DHT22;31511;46.176;9.874;2023-03-01T05:48:17;2.00;99.90
40177;DHT22;31511;46.176;9.874;2023-03-01T05:51:03;2.10;99.90
40177;DHT22;31511;46.176;9.874;2023-03-01T05:53:47;2.30;99.90
40177;DHT22;31511;46.176;9.874;2023-03-01T05:56:32;2.20;99.90
40177;DHT22;31511;46.176;9.874;2023-03-01T05:59:16;2.10;99.90
40177;DHT22;31511;46.176;9.874;2023-03-01T06:02:00;2.10;99.90
40177;DHT22;31511;46.176;9.874;2023-03-01T06:04:45;2.00;99.90
40177;DHT22;31511;46.176;9.874;2023-03-01T06:07:31;2.10;99.90
40177;DHT22;31511;46.176;9.874;2023-03-01T06:10:16;2.10;99.90
40177;DHT22;31511;46.176;9.874;2023-03-01T06:13:01;2.10;99.90
40177;DHT22;31511;46.176;9.874;2023-03-01T06:15:45;2.10;99.90
40177;DHT22;31511;46.176;9.874;2023-03-01T06:18:30;2.10;99.90
40177;DHT22;31511;46.176;9.874;2023-03-01T06:21:15;2.00;99.90
40177;DHT22;31511;46.176;9.874;2023-03-01T06:24:00;2.10;99.90
40177;DHT22;31511;46.176;9.874;2023-03-01T06:26:44;2.10;99.90
40177;DHT22;31511;46.176;9.874;2023-03-01T06:29:29;2.20;99.90
40177;DHT22;31511;46.176;9.874;2023-03-01T06:32:15;2.40;99.90
40177;DHT22;31511;46.176;9.874;2023-03-01T06:35:00;2.40;99.90
40177;DHT22;31511;46.176;9.874;2023-03-01T06:37:44;2.20;99.90
40177;DHT22;31511;46.176;9.874;2023-03-01T06:40:29;2.30;99.90
40177;DHT22;31511;46.176;9.874;2023-03-01T06:43:15;2.20;99.90
40177;DHT22;31511;46.176;9.874;2023-03-01T06:46:00;2.30;99.90
40177;DHT22;31511;46.176;9.874;2023-03-01T06:48:47;2.30;99.90
40177;DHT22;31511;46.176;9.874;2023-03-01T06:51:32;2.20;99.90
40177;DHT22;31511;46.176;9.874;2023-03-01T06:54:16;2.30;99.90
40177;DHT22;31511;46.176;9.874;2023-03-01T06:57:01;2.40;99.90
40177;DHT22;31511;46.176;9.874;2023-03-01T06:59:46;2.60;99.90
40177;DHT22;31511;46.176;9.874;2023-03-01T07:02:31;2.50;99.90
40177;DHT22;31511;46.176;9.874;2023-03-01T07:05:15;2.60;99.90
40177;DHT22;31511;46.176;9.874;2023-03-01T07:08:00;2.70;99.90
40177;DHT22;31511;46.176;9.874;2023-03-01T07:10:44;2.60;99.90
40177;DHT22;31511;46.176;9.874;2023-03-01T07:13:30;2.60;99.90
40177;DHT22;31511;46.176;9.874;2023-03-01T07:16:15;2.70;99.90
40177;DHT22;31511;46.176;9.874;2023-03-01T07:18:59;2.90;99.90
40177;DHT22;31511;46.176;9.874;2023-03-01T07:21:44;2.90;99.90
40177;DHT22;31511;46.176;9.874;2023-03-01T07:24:29;3.00;99.90
40177;DHT22;31511;46.176;9.874;2023-03-01T07:27:13;3.10;99.90
40177;DHT22;31511;46.176;9.874;2023-03-01T07:29:58;3.20;99.90
40177;DHT22;31511;46.176;9.874;2023-03-01T07:32:42;3.20;99.90
40177;DHT22;31511;46.176;9.874;2023-03-01T07:35:28;3.20;99.90
40177;DHT22;31511;46.176;9.874;2023-03-01T07:38:13;3.40;99.90
40177;DHT22;31511;46.176;9.874;2023-03-01T07:40:59;3.30;99.90
40177;DHT22;31511;46.176;9.874;2023-03-01T07:43:43;3.20;99.90
40177;DHT22;31511;46.176;9.874;2023-03-01T07:46:28;3.10;99.90
40177;DHT22;31511;46.176;9.874;2023-03-01T07:49:14;3.20;99.90
40177;DHT22;31511;46.176;9.874;2023-03-01T07:51:59;3.30;99.90
40177;DHT22;31511;46.176;9.874;2023-03-01T07:54:43;3.40;99.90
40177;DHT22;31511;46.176;9.874;2023-03-01T07:57:31;3.40;99.90
40177;DHT22;31511;46.176;9.874;2023-03-01T08:00:15;3.40;99.90
40177;DHT22;31511;46.176;9.874;2023-03-01T08:03:00;3.50;99.90
40177;DHT22;31511;46.176;9.874;2023-03-01T08:05:45;3.60;99.90
40177;DHT22;31511;46.176;9.874;2023-03-01T08:08:30;3.80;99.90
40177;DHT22;31511;46.176;9.874;2023-03-01T08:11:15;3.80;99.90
40177;DHT22;31511;46.176;9.874;2023-03-01T08:14:00;3.90;99.90
40177;DHT22;31511;46.176;9.874;2023-03-01T08:16:44;4.10;99.90
40177;DHT22;31511;46.176;9.874;2023-03-01T08:19:30;4.20;99.90
40177;DHT22;31511;46.176;9.874;2023-03-01T08:22:14;4.50;99.90
40177;DHT22;31511;46.176;9.874;2023-03-01T08:24:59;4.50;99.90
40177;DHT22;31511;46.176;9.874;2023-03-01T08:27:43;4.60;99.90
40177;DHT22;31511;46.176;9.874;2023-03-01T08:30:28;4.70;99.90
40177;DHT22;31511;46.176;9.874;2023-03-01T08:33:12;4.60;99.90
40177;DHT22;31511;46.176;9.874;2023-03-01T08:36:04;4.80;99.90
40177;DHT22;31511;46.176;9.874;2023-03-01T08:38:48;4.90;99.90
40177;DHT22;31511;46.176;9.874;2023-03-01T08:41:33;5.10;99.90
40177;DHT22;31511;46.176;9.874;2023-03-01T08:44:18;5.30;99.90
40177;DHT22;31511;46.176;9.874;2023-03-01T08:47:04;5.50;99.90
40177;DHT22;31511;46.176;9.874;2023-03-01T08:49:49;5.70;99.90
40177;DHT22;31511;46.176;9.874;2023-03-01T08:52:33;5.80;99.90
40177;DHT22;31511;46.176;9.874;2023-03-01T08:55:17;5.30;99.90
40177;DHT22;31511;46.176;9.874;2023-03-01T08:58:02;5.20;99.90
40177;DHT22;31511;46.176;9.874;2023-03-01T09:00:47;5.70;99.90
40177;DHT22;31511;46.176;9.874;2023-03-01T09:03:31;5.90;99.90
40177;DHT22;31511;46.176;9.874;2023-03-01T09:06:16;5.90;99.90
40177;DHT22;31511;46.176;9.874;2023-03-01T09:09:01;5.90;99.90
40177;DHT22;31511;46.176;9.874;2023-03-01T09:11:47;5.90;99.90
40177;DHT22;31511;46.176;9.874;2023-03-01T09:14:34;6.40;99.90
40177;DHT22;31511;46.176;9.874;2023-03-01T09:17:18;7.00;99.90
40177;DHT22;31511;46.176;9.874;2023-03-01T09:20:05;7.30;99.90
40177;DHT22;31511;46.176;9.874;2023-03-01T09:22:50;7.80;99.90
40177;DHT22;31511;46.176;9.874;2023-03-01T09:25:35;7.80;99.90
40177;DHT22;31511;46.176;9.874;2023-03-01T09:28:20;7.70;99.90
40177;DHT22;31511;46.176;9.874;2023-03-01T09:31:07;7.60;99.90
40177;DHT22;31511;46.176;9.874;2023-03-01T09:33:52;8.40;99.90
40177;DHT22;31511;46.176;9.874;2023-03-01T09:36:36;8.50;99.90
40177;DHT22;31511;46.176;9.874;2023-03-01T09:39:22;9.00;99.90
40177;DHT22;31511;46.176;9.874;2023-03-01T09:42:10;9.60;99.90
40177;DHT22;31511;46.176;9.874;2023-03-01T09:45:39;10.00;99.90
40177;DHT22;31511;46.176;9.874;2023-03-01T09:48:04;12.80;99.90
40177;DHT22;31511;46.176;9.874;2023-03-01T09:50:50;12.30;99.90
40177;DHT22;31511;46.176;9.874;2023-03-01T09:53:35;11.40;99.90
40177;DHT22;31511;46.176;9.874;2023-03-01T09:59:10;10.30;99.90
40177;DHT22;31511;46.176;9.874;2023-03-01T10:02:05;9.80;99.90
40177;DHT22;31511;46.176;9.874;2023-03-01T10:08:25;8.60;99.90
40177;DHT22;31511;46.176;9.874;2023-03-01T10:11:17;10.20;99.90
40177;DHT22;31511;46.176;9.874;2023-03-01T10:16:57;9.70;99.90
40177;DHT22;31511;46.176;9.874;2023-03-01T10:19:43;12.10;99.90
40177;DHT22;31511;46.176;9.874;2023-03-01T10:22:29;12.60;99.90
40177;DHT22;31511;46.176;9.874;2023-03-01T10:25:15;14.40;99.90
40177;DHT22;31511;46.176;9.874;2023-03-01T10:28:02;13.30;99.90
40177;DHT22;31511;46.176;9.874;2023-03-01T10:30:51;11.70;99.90
40177;DHT22;31511;46.176;9.874;2023-03-01T10:33:37;10.90;99.90
40177;DHT22;31511;46.176;9.874;2023-03-01T10:36:26;11.00;99.90
40177;DHT22;31511;46.176;9.874;2023-03-01T10:39:13;11.50;99.90
40177;DHT22;31511;46.176;9.874;2023-03-01T10:42:04;12.80;99.90
40177;DHT22;31511;46.176;9.874;2023-03-01T10:44:49;12.40;99.90
40177;DHT22;31511;46.176;9.874;2023-03-01T10:47:36;13.50;99.90
40177;DHT22;31511;46.176;9.874;2023-03-01T10:50:22;14.30;99.90
40177;DHT22;31511;46.176;9.874;2023-03-01T10:53:18;14.20;99.90
40177;DHT22;31511;46.176;9.874;2023-03-01T10:56:06;13.50;99.90
40177;DHT22;31511;46.176;9.874;2023-03-01T10:59:02;13.50;99.90
40177;DHT22;31511;46.176;9.874;2023-03-01T11:01:47;15.40;99.90
40177;DHT22;31511;46.176;9.874;2023-03-01T11:04:58;17.00;99.90
40177;DHT22;31511;46.176;9.874;2023-03-01T11:07:55;17.30;99.90
40177;DHT22;31511;46.176;9.874;2023-03-01T11:10:40;14.30;99.90
40177;DHT22;31511;46.176;9.874;2023-03-01T11:13:26;17.20;99.90
40177;DHT22;31511;46.176;9.874;2023-03-01T11:16:12;19.10;99.90
40177;DHT22;31511;46.176;9.874;2023-03-01T11:19:19;17.60;99.90
40177;DHT22;31511;46.176;9.874;2023-03-01T11:22:12;20.90;99.90
40177;DHT22;31511;46.176;9.874;2023-03-01T11:24:57;21.50;99.90
40177;DHT22;31511;46.176;9.874;2023-03-01T11:27:43;18.10;99.90
40177;DHT22;31511;46.176;9.874;2023-03-01T11:33:37;15.60;99.90
40177;DHT22;31511;46.176;9.874;2023-03-01T11:36:35;14.50;99.90
40177;DHT22;31511;46.176;9.874;2023-03-01T11:39:58;15.70;99.90
40177;DHT22;31511;46.176;9.874;2023-03-01T11:45:52;19.10;99.90
40177;DHT22;31511;46.176;9.874;2023-03-01T11:52:03;16.10;99.90
40177;DHT22;31511;46.176;9.874;2023-03-01T11:57:43;15.60;99.90
40177;DHT22;31511;46.176;9.874;2023-03-01T12:03:28;14.70;99.90
40177;DHT22;31511;46.176;9.874;2023-03-01T12:09:36;16.80;99.90
40177;DHT22;31511;46.176;9.874;2023-03-01T12:12:44;19.60;99.90
40177;DHT22;31511;46.176;9.874;2023-03-01T12:24:51;17.20;99.90
40177;DHT22;31511;46.176;9.874;2023-03-01T12:30:55;15.40;99.90
40177;DHT22;31511;46.176;9.874;2023-03-01T12:33:45;16.20;99.90
40177;DHT22;31511;46.176;9.874;2023-03-01T12:36:39;16.50;99.90
40177;DHT22;31511;46.176;9.874;2023-03-01T12:42:31;16.30;99.90
40177;DHT22;31511;46.176;9.874;2023-03-01T12:48:24;17.10;99.90
40177;DHT22;31511;46.176;9.874;2023-03-01T12:51:16;17.50;99.90
40177;DHT22;31511;46.176;9.874;2023-03-01T12:54:19;17.90;99.90
40177;DHT22;31511;46.176;9.874;2023-03-01T13:00:05;16.80;99.90
40177;DHT22;31511;46.176;9.874;2023-03-01T13:03:00;16.90;99.90
40177;DHT22;31511;46.176;9.874;2023-03-01T13:11:35;17.30;99.90
40177;DHT22;31511;46.176;9.874;2023-03-01T13:17:24;16.60;99.90
40177;DHT22;31511;46.176;9.874;2023-03-01T13:20:15;16.40;99.90
40177;DHT22;31511;46.176;9.874;2023-03-01T13:23:05;15.90;99.90
40177;DHT22;31511;46.176;9.874;2023-03-01T13:28:57;14.90;99.90
40177;DHT22;31511;46.176;9.874;2023-03-01T13:34:42;15.00;99.90
40177;DHT22;31511;46.176;9.874;2023-03-01T13:37:29;15.10;99.90
40177;DHT22;31511;46.176;9.874;2023-03-01T13:46:21;14.40;99.90
40177;DHT22;31511;46.176;9.874;2023-03-01T13:49:18;13.80;99.90
40177;DHT22;31511;46.176;9.874;2023-03-01T13:52:04;13.80;99.90
40177;DHT22;31511;46.176;9.874;2023-03-01T13:54:50;13.60;99.90
40177;DHT22;31511;46.176;9.874;2023-03-01T13:57:37;13.20;99.90
40177;DHT22;31511;46.176;9.874;2023-03-01T14:00:27;13.00;99.90
40177;DHT22;31511;46.176;9.874;2023-03-01T14:06:07;13.00;99.90
40177;DHT22;31511;46.176;9.874;2023-03-01T14:09:00;13.00;99.90
40177;DHT22;31511;46.176;9.874;2023-03-01T14:20:24;12.70;99.90
40177;DHT22;31511;46.176;9.874;2023-03-01T14:23:12;12.80;99.90
40177;DHT22;31511;46.176;9.874;2023-03-01T14:25:57;12.60;99.90
40177;DHT22;31511;46.176;9.874;2023-03-01T14:28:42;12.30;99.90
40177;DHT22;31511;46.176;9.874;2023-03-01T14:34:18;12.30;99.90
40177;DHT22;31511;46.176;9.874;2023-03-01T14:37:11;12.30;99.90
40177;DHT22;31511;46.176;9.874;2023-03-01T14:40:03;12.10;99.90
40177;DHT22;31511;46.176;9.874;2023-03-01T14:42:47;11.90;99.90
40177;DHT22;31511;46.176;9.874;2023-03-01T14:45:32;11.50;99.90
40177;DHT22;31511;46.176;9.874;2023-03-01T14:48:16;11.40;99.90
40177;DHT22;31511;46.176;9.874;2023-03-01T14:51:01;11.30;99.90
40177;DHT22;31511;46.176;9.874;2023-03-01T14:53:48;11.40;99.90
40177;DHT22;31511;46.176;9.874;2023-03-01T14:56:43;11.30;99.90
40177;DHT22;31511;46.176;9.874;2023-03-01T14:59:29;11.20;99.90
40177;DHT22;31511;46.176;9.874;2023-03-01T15:02:19;11.00;99.90
40177;DHT22;31511;46.176;9.874;2023-03-01T15:05:03;11.10;99.90
40177;DHT22;31511;46.176;9.874;2023-03-01T15:07:52;11.00;99.90
40177;DHT22;31511;46.176;9.874;2023-03-01T15:10:38;10.90;99.90
40177;DHT22;31511;46.176;9.874;2023-03-01T15:13:25;10.80;99.90
40177;DHT22;31511;46.176;9.874;2023-03-01T15:16:11;10.80;99.90
40177;DHT22;31511;46.176;9.874;2023-03-01T15:19:01;10.90;99.90
40177;DHT22;31511;46.176;9.874;2023-03-01T15:21:48;10.60;99.90
40177;DHT22;31511;46.176;9.874;2023-03-01T15:24:32;10.30;99.90
40177;DHT22;31511;46.176;9.874;2023-03-01T15:27:23;10.30;99.90
40177;DHT22;31511;46.176;9.874;2023-03-01T15:30:13;10.30;99.90
40177;DHT22;31511;46.176;9.874;2023-03-01T15:36:31;10.20;99.90
40177;DHT22;31511;46.176;9.874;2023-03-01T15:48:02;9.90;99.90
40177;DHT22;31511;46.176;9.874;2023-03-01T15:50:58;9.90;99.90
40177;DHT22;31511;46.176;9.874;2023-03-01T15:53:45;9.70;99.90
40177;DHT22;31511;46.176;9.874;2023-03-01T15:56:32;9.80;99.90
40177;DHT22;31511;46.176;9.874;2023-03-01T15:59:17;9.80;99.90
40177;DHT22;31511;46.176;9.874;2023-03-01T16:02:07;9.70;99.90
40177;DHT22;31511;46.176;9.874;2023-03-01T16:04:53;9.80;99.90
40177;DHT22;31511;46.176;9.874;2023-03-01T16:07:40;9.80;99.90
40177;DHT22;31511;46.176;9.874;2023-03-01T16:10:26;9.80;99.90
40177;DHT22;31511;46.176;9.874;2023-03-01T16:13:12;9.80;99.90
40177;DHT22;31511;46.176;9.874;2023-03-01T16:15:57;9.90;99.90
40177;DHT22;31511;46.176;9.874;2023-03-01T16:18:46;9.80;99.90
40177;DHT22;31511;46.176;9.874;2023-03-01T16:21:31;9.90;99.90
40177;DHT22;31511;46.176;9.874;2023-03-01T16:24:16;9.80;99.90
40177;DHT22;31511;46.176;9.874;2023-03-01T16:27:01;9.70;99.90
40177;DHT22;31511;46.176;9.874;2023-03-01T16:29:45;9.70;99.90
40177;DHT22;31511;46.176;9.874;2023-03-01T16:32:30;9.60;99.90
40177;DHT22;31511;46.176;9.874;2023-03-01T16:35:16;9.50;99.90
40177;DHT22;31511;46.176;9.874;2023-03-01T16:38:00;9.40;99.90
40177;DHT22;31511;46.176;9.874;2023-03-01T16:40:48;9.40;99.90
40177;DHT22;31511;46.176;9.874;2023-03-01T16:43:33;9.30;99.90
40177;DHT22;31511;46.176;9.874;2023-03-01T16:46:23;9.30;99.90
40177;DHT22;31511;46.176;9.874;2023-03-01T16:49:08;9.30;99.90
40177;DHT22;31511;46.176;9.874;2023-03-01T16:51:53;9.30;99.90
40177;DHT22;31511;46.176;9.874;2023-03-01T16:54:39;9.20;99.90
40177;DHT22;31511;46.176;9.874;2023-03-01T16:57:24;9.20;99.90
40177;DHT22;31511;46.176;9.874;2023-03-01T17:00:10;9.10;99.90
40177;DHT22;31511;46.176;9.874;2023-03-01T17:02:56;9.10;99.90
40177;DHT22;31511;46.176;9.874;2023-03-01T17:05:40;9.10;99.90
40177;DHT22;31511;46.176;9.874;2023-03-01T17:08:25;9.20;99.90
40177;DHT22;31511;46.176;9.874;2023-03-01T17:11:15;9.10;99.90
40177;DHT22;31511;46.176;9.874;2023-03-01T17:14:01;9.00;99.90
40177;DHT22;31511;46.176;9.874;2023-03-01T17:16:46;8.90;99.90
40177;DHT22;31511;46.176;9.874;2023-03-01T17:19:31;8.90;99.90
40177;DHT22;31511;46.176;9.874;2023-03-01T17:22:15;8.90;99.90
40177;DHT22;31511;46.176;9.874;2023-03-01T17:25:01;8.90;99.90
40177;DHT22;31511;46.176;9.874;2023-03-01T17:27:47;8.90;99.90
40177;DHT22;31511;46.176;9.874;2023-03-01T17:30:31;8.90;99.90
40177;DHT22;31511;46.176;9.874;2023-03-01T17:33:16;8.90;99.90
40177;DHT22;31511;46.176;9.874;2023-03-01T17:36:00;8.90;99.90
40177;DHT22;31511;46.176;9.874;2023-03-01T17:38:46;8.90;99.90
40177;DHT22;31511;46.176;9.874;2023-03-01T17:41:30;8.80;99.90
40177;DHT22;31511;46.176;9.874;2023-03-01T17:44:14;8.80;99.90
40177;DHT22;31511;46.176;9.874;2023-03-01T17:47:00;8.80;99.90
40177;DHT22;31511;46.176;9.874;2023-03-01T17:49:45;8.80;99.90
40177;DHT22;31511;46.176;9.874;2023-03-01T17:52:30;8.80;99.90
40177;DHT22;31511;46.176;9.874;2023-03-01T17:55:16;8.90;99.90
40177;DHT22;31511;46.176;9.874;2023-03-01T17:58:03;8.80;99.90
40177;DHT22;31511;46.176;9.874;2023-03-01T18:00:48;8.80;99.90
40177;DHT22;31511;46.176;9.874;2023-03-01T18:03:34;8.80;99.90
40177;DHT22;31511;46.176;9.874;2023-03-01T18:06:22;8.70;99.90
40177;DHT22;31511;46.176;9.874;2023-03-01T18:09:07;8.80;99.90
40177;DHT22;31511;46.176;9.874;2023-03-01T18:11:52;8.80;99.90
40177;DHT22;31511;46.176;9.874;2023-03-01T18:14:38;8.80;99.90
40177;DHT22;31511;46.176;9.874;2023-03-01T18:17:24;8.80;99.90
40177;DHT22;31511;46.176;9.874;2023-03-01T18:20:10;8.80;99.90
40177;DHT22;31511;46.176;9.874;2023-03-01T18:22:56;8.80;99.90
40177;DHT22;31511;46.176;9.874;2023-03-01T18:25:41;8.70;99.90
40177;DHT22;31511;46.176;9.874;2023-03-01T18:28:26;8.70;99.90
40177;DHT22;31511;46.176;9.874;2023-03-01T18:31:11;8.70;99.90
40177;DHT22;31511;46.176;9.874;2023-03-01T18:33:56;8.60;99.90
40177;DHT22;31511;46.176;9.874;2023-03-01T18:36:41;8.70;99.90
40177;DHT22;31511;46.176;9.874;2023-03-01T18:39:25;8.60;99.90
40177;DHT22;31511;46.176;9.874;2023-03-01T18:42:10;8.60;99.90
40177;DHT22;31511;46.176;9.874;2023-03-01T18:44:57;8.60;99.90
40177;DHT22;31511;46.176;9.874;2023-03-01T18:47:42;8.60;99.90
40177;DHT22;31511;46.176;9.874;2023-03-01T18:50:29;8.60;99.90
40177;DHT22;31511;46.176;9.874;2023-03-01T18:53:14;8.50;99.90
40177;DHT22;31511;46.176;9.874;2023-03-01T18:56:00;8.40;99.90
40177;DHT22;31511;46.176;9.874;2023-03-01T18:58:45;8.30;99.90
40177;DHT22;31511;46.176;9.874;2023-03-01T19:01:31;8.30;99.90
40177;DHT22;31511;46.176;9.874;2023-03-01T19:04:17;8.40;99.90
40177;DHT22;31511;46.176;9.874;2023-03-01T19:07:02;8.40;99.90
40177;DHT22;31511;46.176;9.874;2023-03-01T19:09:47;8.50;99.90
40177;DHT22;31511;46.176;9.874;2023-03-01T19:12:33;8.40;99.90
40177;DHT22;31511;46.176;9.874;2023-03-01T19:15:20;8.40;99.90
40177;DHT22;31511;46.176;9.874;2023-03-01T19:18:06;8.40;99.90
40177;DHT22;31511;46.176;9.874;2023-03-01T19:20:56;8.50;99.90
40177;DHT22;31511;46.176;9.874;2023-03-01T19:23:41;8.40;99.90
40177;DHT22;31511;46.176;9.874;2023-03-01T19:26:26;8.40;99.90